Time;durP1;ratioP1;P1;durP2;ratioP2;P2;SDS_P1;SDS_P2;PMS_P1;PMS_P2;Temp;Humidity;BMP_temperature;BMP_pressure;BME280_temperature;BME280_humidity;BME280_pressure;Samples;Min_cycle;Max_cycle;Signal;HPM_P1;HPM_P2
2022/04/14 00:02:22;;;;;;;22.67;8.02;;;;;;;;;;6149630;29;20263;-87
2022/04/14 00:05:23;;;;;;;20.80;7.87;;;;;;;;;;6132329;29;20023;-87
2022/04/14 00:08:23;;;;;;;23.75;8.07;;;;;;;;;;6131138;29;20266;-87
2022/04/14 00:11:23;;;;;;;19.00;8.17;;;;;;;;;;6150501;29;20023;-87
2022/04/14 00:14:23;;;;;;;19.67;7.18;;;;;;;;;;6134307;29;20274;-87
2022/04/14 00:17:24;;;;;;;15.55;7.25;;;;;;;;;;6133847;29;20509;-87
2022/04/14 00:20:25;;;;;;;20.02;6.88;;;;;;;;;;6133823;29;20047;-87
2022/04/14 00:23:25;;;;;;;18.92;8.32;;;;;;;;;;6133840;29;20079;-87
2022/04/14 00:26:26;;;;;;;18.52;8.95;;;;;;;;;;6133174;29;20046;-87
2022/04/14 00:29:26;;;;;;;23.30;9.60;;;;;;;;;;6132790;29;20030;-87
2022/04/14 00:32:26;;;;;;;21.77;9.33;;;;;;;;;;6133150;29;20337;-87
2022/04/14 00:35:26;;;;;;;23.08;10.40;;;;;;;;;;6133492;29;20337;-87
2022/04/14 00:38:27;;;;;;;31.50;12.23;;;;;;;;;;6133226;29;20533;-87
2022/04/14 00:41:27;;;;;;;25.08;11.98;;;;;;;;;;6128970;29;20035;-87
2022/04/14 00:44:27;;;;;;;35.25;15.07;;;;;;;;;;6124331;29;20476;-87
2022/04/14 00:47:31;;;;;;;42.03;17.43;;;;;;;;;;6132542;29;20019;-87
2022/04/14 00:50:31;;;;;;;40.38;16.48;;;;;;;;;;6110462;29;20286;-87
2022/04/14 00:53:31;;;;;;;46.38;19.23;;;;;;;;;;6126338;29;20023;-87
2022/04/14 00:56:31;;;;;;;42.15;17.08;;;;;;;;;;6146497;29;20387;-87
2022/04/14 00:59:32;;;;;;;36.92;15.40;;;;;;;;;;6149882;29;20019;-87
2022/04/14 01:02:32;;;;;;;33.08;15.07;;;;;;;;;;6150071;29;20019;-87
2022/04/14 01:05:33;;;;;;;26.85;11.73;;;;;;;;;;6132656;29;20372;-87
2022/04/14 01:08:34;;;;;;;30.30;8.85;;;;;;;;;;6131710;29;20126;-87
2022/04/14 01:11:35;;;;;;;25.80;9.82;;;;;;;;;;6132232;29;20408;-87
2022/04/14 01:14:36;;;;;;;37.70;16.30;;;;;;;;;;6132556;29;20046;-87
2022/04/14 01:17:37;;;;;;;28.63;12.02;;;;;;;;;;6132638;29;20019;-87
2022/04/14 01:20:38;;;;;;;35.15;12.57;;;;;;;;;;6131851;29;20383;-87
2022/04/14 01:23:42;;;;;;;29.90;10.57;;;;;;;;;;6132034;29;20094;-87
2022/04/14 01:26:42;;;;;;;31.48;13.13;;;;;;;;;;6148899;29;20031;-87
2022/04/14 01:29:42;;;;;;;21.90;10.75;;;;;;;;;;6147999;29;20073;-87
2022/04/14 01:32:43;;;;;;;27.85;10.88;;;;;;;;;;6131708;29;20027;-87
2022/04/14 01:35:43;;;;;;;21.00;9.32;;;;;;;;;;6131599;29;20067;-87
2022/04/14 01:38:43;;;;;;;24.92;10.43;;;;;;;;;;6131515;29;20027;-87
2022/04/14 01:41:44;;;;;;;26.97;9.87;;;;;;;;;;6131677;29;20460;-87
2022/04/14 01:44:44;;;;;;;22.73;9.05;;;;;;;;;;6126159;29;20631;-86
2022/04/14 01:47:45;;;;;;;25.75;8.75;;;;;;;;;;6108239;29;20342;-87
2022/04/14 01:50:45;;;;;;;22.67;7.82;;;;;;;;;;6123912;29;20019;-87
2022/04/14 01:53:45;;;;;;;21.30;8.88;;;;;;;;;;6125124;29;20030;-87
2022/04/14 01:56:46;;;;;;;17.50;7.75;;;;;;;;;;6131200;29;20020;-87
2022/04/14 01:59:46;;;;;;;17.92;8.18;;;;;;;;;;6123745;29;20035;-87
2022/04/14 02:02:46;;;;;;;19.63;7.67;;;;;;;;;;6108462;29;20024;-86
2022/04/14 02:05:46;;;;;;;12.80;6.45;;;;;;;;;;6123890;29;20270;-86
2022/04/14 02:08:46;;;;;;;19.58;8.35;;;;;;;;;;6123298;29;20032;-87
2022/04/14 02:11:47;;;;;;;19.30;6.90;;;;;;;;;;6138520;29;20483;-86
2022/04/14 02:14:47;;;;;;;17.85;7.70;;;;;;;;;;6123049;29;20298;-87
2022/04/14 02:17:47;;;;;;;13.95;6.35;;;;;;;;;;6148045;28;20475;-86
2022/04/14 02:20:47;;;;;;;20.27;7.90;;;;;;;;;;6130669;29;20023;-87
2022/04/14 02:23:48;;;;;;;19.60;7.85;;;;;;;;;;6131350;29;20030;-86
2022/04/14 02:26:48;;;;;;;22.77;7.90;;;;;;;;;;6130532;29;20023;-87
2022/04/14 02:29:48;;;;;;;12.40;5.73;;;;;;;;;;6130157;29;20372;-87
2022/04/14 02:32:48;;;;;;;20.08;6.88;;;;;;;;;;6146552;29;20401;-87
2022/04/14 02:35:49;;;;;;;18.85;6.43;;;;;;;;;;6148134;28;20051;-87
2022/04/14 02:38:49;;;;;;;21.13;6.68;;;;;;;;;;6130360;29;20031;-86
2022/04/14 02:41:49;;;;;;;26.58;6.70;;;;;;;;;;6130584;29;20027;-86
2022/04/14 02:44:50;;;;;;;21.83;7.25;;;;;;;;;;6123881;29;20032;-86
2022/04/14 02:47:51;;;;;;;21.40;7.03;;;;;;;;;;6106690;29;20023;-86
2022/04/14 02:50:51;;;;;;;17.50;7.30;;;;;;;;;;6106154;29;20399;-86
2022/04/14 02:53:51;;;;;;;20.23;7.50;;;;;;;;;;6124416;29;20027;-86
2022/04/14 02:56:52;;;;;;;19.67;6.53;;;;;;;;;;6147635;28;20019;-86
2022/04/14 02:59:52;;;;;;;18.85;6.35;;;;;;;;;;6130810;29;20419;-86
2022/04/14 03:02:52;;;;;;;20.48;7.35;;;;;;;;;;6147543;29;20102;-86
2022/04/14 03:05:52;;;;;;;22.97;7.57;;;;;;;;;;6130075;29;20036;-86
2022/04/14 03:08:53;;;;;;;21.92;7.22;;;;;;;;;;6129692;29;20263;-87
2022/04/14 03:11:53;;;;;;;20.67;7.10;;;;;;;;;;6129798;29;20031;-86
2022/04/14 03:14:53;;;;;;;20.10;6.88;;;;;;;;;;6129597;29;20256;-86
2022/04/14 03:17:53;;;;;;;15.70;6.70;;;;;;;;;;6121946;29;20071;-86
2022/04/14 03:20:54;;;;;;;18.05;6.30;;;;;;;;;;6105775;29;20031;-86
2022/04/14 03:23:54;;;;;;;13.55;6.22;;;;;;;;;;6123065;29;20024;-86
2022/04/14 03:26:54;;;;;;;22.27;7.25;;;;;;;;;;6130131;29;20566;-86
2022/04/14 03:29:54;;;;;;;20.20;7.60;;;;;;;;;;6145579;29;20487;-86
2022/04/14 03:32:55;;;;;;;19.08;8.75;;;;;;;;;;6145277;29;20027;-86
2022/04/14 03:35:55;;;;;;;21.90;7.90;;;;;;;;;;6129369;29;20451;-86
2022/04/14 03:38:55;;;;;;;17.75;6.53;;;;;;;;;;6129480;29;20028;-86
2022/04/14 03:41:56;;;;;;;17.50;8.20;;;;;;;;;;6146810;29;20419;-86
2022/04/14 03:44:57;;;;;;;13.52;5.43;;;;;;;;;;6146736;29;20458;-87
2022/04/14 03:47:58;;;;;;;17.65;4.60;;;;;;;;;;6129799;29;20372;-86
2022/04/14 03:50:58;;;;;;;17.05;6.93;;;;;;;;;;6129826;29;20114;-86
2022/04/14 03:53:58;;;;;;;19.42;7.70;;;;;;;;;;6129379;29;20030;-86
2022/04/14 03:56:58;;;;;;;18.83;6.85;;;;;;;;;;6122330;29;20019;-86
2022/04/14 03:59:58;;;;;;;22.60;8.18;;;;;;;;;;6128812;29;20066;-86
2022/04/14 04:02:59;;;;;;;20.83;9.48;;;;;;;;;;6128782;29;20447;-86
2022/04/14 04:05:59;;;;;;;24.00;8.75;;;;;;;;;;6129772;29;20041;-86
2022/04/14 04:08:59;;;;;;;21.02;9.15;;;;;;;;;;6128607;29;20024;-86
2022/04/14 04:12:00;;;;;;;23.98;7.65;;;;;;;;;;6154124;28;20033;-86
2022/04/14 04:15:00;;;;;;;22.20;6.55;;;;;;;;;;6127723;29;20035;-86
2022/04/14 04:18:00;;;;;;;18.98;8.35;;;;;;;;;;6125209;29;20038;-86
2022/04/14 04:21:01;;;;;;;17.63;7.55;;;;;;;;;;6113132;29;20023;-86
2022/04/14 04:24:01;;;;;;;18.83;8.30;;;;;;;;;;6139774;28;20023;-86
2022/04/14 04:27:01;;;;;;;17.90;8.02;;;;;;;;;;6128824;29;20019;-86
2022/04/14 04:30:02;;;;;;;17.02;8.10;;;;;;;;;;6124010;29;20024;-86
2022/04/14 04:33:04;;;;;;;23.77;8.43;;;;;;;;;;6124388;29;20019;-86
2022/04/14 04:36:04;;;;;;;19.95;9.13;;;;;;;;;;6143431;28;20184;-86
2022/04/14 04:39:05;;;;;;;21.25;7.72;;;;;;;;;;6116448;29;20057;-86
2022/04/14 04:42:05;;;;;;;23.05;11.57;;;;;;;;;;6118183;29;20428;-86
2022/04/14 04:45:05;;;;;;;18.70;8.77;;;;;;;;;;6125880;29;20055;-86
2022/04/14 04:48:06;;;;;;;23.42;8.57;;;;;;;;;;6125436;29;20027;-86
2022/04/14 04:51:06;;;;;;;26.67;9.68;;;;;;;;;;6126547;29;20024;-86
2022/04/14 04:54:06;;;;;;;18.80;8.43;;;;;;;;;;6111018;28;21222;-86
2022/04/14 04:57:06;;;;;;;21.35;8.95;;;;;;;;;;6129268;29;20026;-86
2022/04/14 05:00:07;;;;;;;23.08;10.38;;;;;;;;;;6127003;29;20499;-86
2022/04/14 05:03:09;;;;;;;23.40;10.73;;;;;;;;;;6146228;29;20027;-86
2022/04/14 05:06:09;;;;;;;26.77;11.35;;;;;;;;;;6148734;29;20488;-86
2022/04/14 05:09:09;;;;;;;28.60;10.10;;;;;;;;;;6128698;29;20077;-86
2022/04/14 05:12:10;;;;;;;23.83;11.25;;;;;;;;;;6147000;29;20360;-86
2022/04/14 05:15:10;;;;;;;20.45;9.27;;;;;;;;;;6148428;28;20041;-86
2022/04/14 05:18:10;;;;;;;18.00;9.18;;;;;;;;;;6143561;29;20456;-86
2022/04/14 05:21:11;;;;;;;28.00;11.57;;;;;;;;;;6132892;29;20058;-86
2022/04/14 05:24:11;;;;;;;34.38;14.70;;;;;;;;;;6131542;29;20121;-87
2022/04/14 05:27:11;;;;;;;31.63;13.32;;;;;;;;;;6131346;29;20035;-86
2022/04/14 05:30:11;;;;;;;20.85;11.02;;;;;;;;;;6129002;29;20035;-86
2022/04/14 05:33:12;;;;;;;19.65;10.75;;;;;;;;;;6128414;28;20030;-86
2022/04/14 05:36:12;;;;;;;21.60;11.32;;;;;;;;;;6132270;29;20171;-86
2022/04/14 05:39:12;;;;;;;30.15;12.23;;;;;;;;;;6127616;29;20039;-86
2022/04/14 05:42:13;;;;;;;26.60;12.27;;;;;;;;;;6128416;29;20095;-87
2022/04/14 05:45:13;;;;;;;29.25;12.60;;;;;;;;;;6132578;28;20249;-87
2022/04/14 05:48:14;;;;;;;28.13;14.48;;;;;;;;;;6131945;28;20515;-88
2022/04/14 05:51:15;;;;;;;27.90;13.60;;;;;;;;;;6127248;28;20027;-88
2022/04/14 05:54:15;;;;;;;30.30;13.95;;;;;;;;;;6147575;28;20706;-89
2022/04/14 05:57:16;;;;;;;22.60;12.30;;;;;;;;;;6152275;28;20442;-90
2022/04/14 06:00:17;;;;;;;25.73;13.23;;;;;;;;;;6128401;29;20023;-90
2022/04/14 06:03:17;;;;;;;31.13;14.57;;;;;;;;;;6129202;28;20037;-90
2022/04/14 06:06:18;;;;;;;24.17;13.47;;;;;;;;;;6128074;29;20023;-89
2022/04/14 06:09:19;;;;;;;24.87;13.23;;;;;;;;;;6129197;29;20030;-90
2022/04/14 06:12:19;;;;;;;23.05;11.55;;;;;;;;;;6130460;29;20062;-90
2022/04/14 06:15:19;;;;;;;25.93;12.47;;;;;;;;;;6147156;29;20031;-90
2022/04/14 06:18:21;;;;;;;25.60;13.03;;;;;;;;;;6130181;29;20043;-90
2022/04/14 06:21:21;;;;;;;22.77;10.68;;;;;;;;;;6136748;28;20026;-90
2022/04/14 06:24:21;;;;;;;18.17;10.13;;;;;;;;;;6142865;28;20093;-89
2022/04/14 06:27:21;;;;;;;24.10;12.83;;;;;;;;;;6134947;28;20081;-89
2022/04/14 06:30:22;;;;;;;35.93;14.60;;;;;;;;;;6124831;28;20031;-90
2022/04/14 06:33:23;;;;;;;26.13;12.27;;;;;;;;;;6130210;29;20115;-90
2022/04/14 06:36:23;;;;;;;25.05;13.15;;;;;;;;;;6130310;29;20047;-89
2022/04/14 06:39:24;;;;;;;27.00;13.47;;;;;;;;;;6133738;28;20691;-89
2022/04/14 06:42:24;;;;;;;26.00;13.13;;;;;;;;;;6130466;29;20112;-89
2022/04/14 06:45:24;;;;;;;21.27;13.40;;;;;;;;;;6130725;28;20019;-90
2022/04/14 06:48:25;;;;;;;19.47;11.23;;;;;;;;;;6148884;29;20016;-90
2022/04/14 06:51:25;;;;;;;23.00;11.63;;;;;;;;;;6129617;29;20023;-90
2022/04/14 06:54:27;;;;;;;20.23;11.63;;;;;;;;;;6130759;28;20027;-90
2022/04/14 06:57:27;;;;;;;17.77;10.48;;;;;;;;;;6126574;29;20563;-90
2022/04/14 07:00:28;;;;;;;19.23;10.13;;;;;;;;;;6138474;29;20038;-90
2022/04/14 07:03:29;;;;;;;17.80;9.63;;;;;;;;;;6136357;28;20027;-90
2022/04/14 07:06:29;;;;;;;17.40;10.53;;;;;;;;;;6139335;28;21557;-90
2022/04/14 07:09:32;;;;;;;14.23;9.27;;;;;;;;;;6131856;28;20494;-90
2022/04/14 07:12:32;;;;;;;19.95;10.23;;;;;;;;;;6131076;28;20038;-89
2022/04/14 07:15:32;;;;;;;16.47;8.40;;;;;;;;;;6152721;28;20027;-90
2022/04/14 07:18:32;;;;;;;19.33;10.43;;;;;;;;;;6145326;28;20549;-90
2022/04/14 07:21:33;;;;;;;17.27;10.20;;;;;;;;;;6146589;29;20558;-90
2022/04/14 07:24:33;;;;;;;19.77;9.43;;;;;;;;;;6130744;28;20019;-90
2022/04/14 07:27:33;;;;;;;19.17;10.90;;;;;;;;;;6146972;29;20106;-90
2022/04/14 07:30:33;;;;;;;19.53;10.07;;;;;;;;;;6130481;29;20093;-90
2022/04/14 07:33:34;;;;;;;18.10;9.73;;;;;;;;;;6130505;29;20035;-90
2022/04/14 07:36:34;;;;;;;19.90;9.77;;;;;;;;;;6129652;29;20051;-90
2022/04/14 07:39:35;;;;;;;17.38;10.68;;;;;;;;;;6147620;29;20384;-90
2022/04/14 07:42:36;;;;;;;20.00;10.17;;;;;;;;;;6130000;29;20030;-90
2022/04/14 07:45:38;;;;;;;18.95;10.27;;;;;;;;;;6129884;29;20034;-90
2022/04/14 07:48:38;;;;;;;17.23;9.85;;;;;;;;;;6128989;29;20035;-91
2022/04/14 07:51:40;;;;;;;18.60;9.53;;;;;;;;;;6129334;28;20043;-91
2022/04/14 07:54:40;;;;;;;17.38;9.45;;;;;;;;;;6148993;28;20024;-90
2022/04/14 07:57:40;;;;;;;19.17;9.33;;;;;;;;;;6146426;29;20027;-91
2022/04/14 08:00:41;;;;;;;18.60;9.13;;;;;;;;;;6131278;28;20028;-91
2022/04/14 08:03:41;;;;;;;15.70;9.15;;;;;;;;;;6129419;29;20491;-91
2022/04/14 08:06:41;;;;;;;;;;;;;;;;;;6128999;29;20415;-91
2022/04/14 08:09:41;;;;;;;16.33;9.30;;;;;;;;;;6136926;29;19914;-91
2022/04/14 08:12:42;;;;;;;;;;;;;;;;;;6147432;29;20035;-91
2022/04/14 08:15:43;;;;;;;12.43;7.18;;;;;;;;;;6147344;28;20008;-90
2022/04/14 08:18:43;;;;;;;;;;;;;;;;;;6133591;29;20089;-91
2022/04/14 08:21:45;;;;;;;15.70;7.68;;;;;;;;;;6134775;29;19910;-91
2022/04/14 08:24:47;;;;;;;13.65;7.55;;;;;;;;;;6135112;29;20510;-91
2022/04/14 08:27:48;;;;;;;10.65;6.88;;;;;;;;;;6133973;29;20019;-91
2022/04/14 08:30:48;;;;;;;;;;;;;;;;;;6149808;28;20027;-91
2022/04/14 08:34:16;;;;;;;19.27;9.07;;;;;;;;;;6141174;29;19952;-91
2022/04/14 08:37:20;;;;;;;13.50;7.70;;;;;;;;;;6122512;29;20055;-91
2022/04/14 08:40:24;;;;;;;13.70;7.10;;;;;;;;;;6128480;29;20751;-91
2022/04/14 08:43:30;;;;;;;14.77;7.85;;;;;;;;;;6150215;28;20027;-92
2022/04/14 08:46:36;;;;;;;13.02;8.05;;;;;;;;;;6147139;28;20031;-91
2022/04/14 08:49:37;;;;;;;12.00;7.53;;;;;;;;;;6133039;29;20126;-90
2022/04/14 08:52:37;;;;;;;;;;;;;;;;;;6134005;29;20024;-88
2022/04/14 08:55:42;;;;;;;13.88;6.85;;;;;;;;;;6130007;29;19922;-88
2022/04/14 08:58:43;;;;;;;13.70;6.55;;;;;;;;;;6143794;29;20111;-88
2022/04/14 09:01:44;;;;;;;;;;;;;;;;;;6129602;28;20058;-88
2022/04/14 09:04:44;;;;;;;9.20;5.13;;;;;;;;;;6142631;29;19915;-90
2022/04/14 09:07:49;;;;;;;14.95;5.90;;;;;;;;;;6126421;28;20462;-90
2022/04/14 09:10:50;;;;;;;12.02;6.80;;;;;;;;;;6145014;28;20098;-90
2022/04/14 09:13:51;;;;;;;13.38;6.25;;;;;;;;;;6127777;29;20027;-91
2022/04/14 09:16:51;;;;;;;12.02;5.97;;;;;;;;;;6124862;29;20039;-90
2022/04/14 09:19:51;;;;;;;11.10;6.00;;;;;;;;;;6125855;29;20550;-90
2022/04/14 09:23:10;;;;;;;10.53;5.67;;;;;;;;;;6144371;29;20019;-90
2022/04/14 09:26:14;;;;;;;11.82;5.63;;;;;;;;;;6128740;29;20051;-90
2022/04/14 09:29:14;;;;;;;11.75;5.15;;;;;;;;;;6128240;29;20423;-90
2022/04/14 09:32:30;;;;;;;9.10;5.10;;;;;;;;;;6129053;29;20038;-90
2022/04/14 09:35:31;;;;;;;9.77;4.90;;;;;;;;;;6148592;29;20027;-90
2022/04/14 09:38:58;;;;;;;10.05;6.28;;;;;;;;;;6148679;29;20082;-90
2022/04/14 09:41:58;;;;;;;7.70;4.80;;;;;;;;;;6124573;29;20484;-89
2022/04/14 09:45:20;;;;;;;8.63;4.37;;;;;;;;;;6131604;28;20132;-90
2022/04/14 09:48:22;;;;;;;10.00;4.90;;;;;;;;;;6127363;28;20031;-90
2022/04/14 09:51:26;;;;;;;13.73;5.30;;;;;;;;;;6149226;28;20042;-90
2022/04/14 09:54:29;;;;;;;11.95;5.35;;;;;;;;;;6132158;29;20023;-90
2022/04/14 09:57:29;;;;;;;8.85;4.93;;;;;;;;;;6135714;28;20026;-89
2022/04/14 10:00:40;;;;;;;6.77;3.90;;;;;;;;;;6136183;28;20067;-90
2022/04/14 10:03:40;;;;;;;9.73;5.50;;;;;;;;;;6131817;29;20042;-90
2022/04/14 10:07:00;;;;;;;9.17;4.73;;;;;;;;;;6131928;29;20372;-91
2022/04/14 10:10:00;;;;;;;11.02;4.05;;;;;;;;;;6131144;29;20110;-90
2022/04/14 10:13:02;;;;;;;9.90;4.40;;;;;;;;;;6133122;28;20019;-90
2022/04/14 10:16:03;;;;;;;8.05;4.30;;;;;;;;;;6147475;28;20016;-91
2022/04/14 10:19:03;;;;;;;7.03;4.47;;;;;;;;;;6131992;29;20034;-90
2022/04/14 10:22:06;;;;;;;8.63;4.73;;;;;;;;;;6132831;29;20027;-91
2022/04/14 10:25:07;;;;;;;8.70;4.57;;;;;;;;;;6133277;29;20015;-91
2022/04/14 10:28:14;;;;;;;7.63;3.58;;;;;;;;;;6149305;29;20019;-90
2022/04/14 10:31:17;;;;;;;7.85;4.10;;;;;;;;;;6132052;29;20030;-91
2022/04/14 10:34:17;;;;;;;6.97;4.53;;;;;;;;;;6148561;29;20024;-91
2022/04/14 10:37:35;;;;;;;7.20;3.70;;;;;;;;;;6147155;29;20082;-90
2022/04/14 10:40:43;;;;;;;8.43;4.25;;;;;;;;;;6129637;29;20055;-90
2022/04/14 10:43:45;;;;;;;7.70;3.97;;;;;;;;;;6130088;29;20102;-90
2022/04/14 10:46:48;;;;;;;9.05;4.75;;;;;;;;;;6147962;29;20023;-90
2022/04/14 10:49:49;;;;;;;8.30;3.80;;;;;;;;;;6148008;29;20022;-90
2022/04/14 10:53:09;;;;;;;10.57;5.07;;;;;;;;;;6130542;29;20038;-91
2022/04/14 10:56:29;;;;;;;15.10;4.97;;;;;;;;;;6130739;29;20038;-90
2022/04/14 10:59:32;;;;;;;6.40;4.22;;;;;;;;;;6130317;29;20027;-90
2022/04/14 11:02:52;;;;;;;8.93;4.25;;;;;;;;;;6130266;29;20035;-90
2022/04/14 11:05:52;;;;;;;8.85;4.93;;;;;;;;;;6130640;29;20113;-90
2022/04/14 11:08:52;;;;;;;10.43;4.77;;;;;;;;;;6130276;29;20011;-91
2022/04/14 11:11:59;;;;;;;7.83;4.43;;;;;;;;;;6129686;29;20588;-89
2022/04/14 11:15:00;;;;;;;10.32;5.88;;;;;;;;;;6129521;29;20073;-90
2022/04/14 11:18:03;;;;;;;10.73;5.20;;;;;;;;;;6106375;29;20063;-90
2022/04/14 11:21:04;;;;;;;8.93;5.20;;;;;;;;;;6108380;29;20027;-90
2022/04/14 11:24:04;;;;;;;12.87;6.43;;;;;;;;;;6127875;29;20133;-91
2022/04/14 11:27:17;;;;;;;13.53;6.97;;;;;;;;;;6147210;29;20498;-90
2022/04/14 11:30:37;;;;;;;12.95;7.25;;;;;;;;;;6146814;29;20027;-91
2022/04/14 11:33:38;;;;;;;9.95;6.10;;;;;;;;;;6129267;29;20122;-90
2022/04/14 11:36:40;;;;;;;13.20;5.70;;;;;;;;;;6129454;29;20050;-90
2022/04/14 11:39:42;;;;;;;14.10;6.60;;;;;;;;;;6130284;28;20039;-90
2022/04/14 11:43:00;;;;;;;12.25;6.28;;;;;;;;;;6140473;28;20029;-91
2022/04/14 11:46:01;;;;;;;13.32;5.40;;;;;;;;;;6131732;28;20082;-91
2022/04/14 11:49:01;;;;;;;11.30;4.97;;;;;;;;;;6129538;29;20012;-91
2022/04/14 11:52:03;;;;;;;16.63;6.73;;;;;;;;;;6149281;28;20331;-91
2022/04/14 11:55:03;;;;;;;11.60;5.55;;;;;;;;;;6149613;28;20027;-90
2022/04/14 11:58:14;;;;;;;15.10;8.03;;;;;;;;;;6135833;28;20034;-90
2022/04/14 12:01:14;;;;;;;15.25;5.55;;;;;;;;;;6149700;28;20055;-90
2022/04/14 12:04:15;;;;;;;13.13;6.22;;;;;;;;;;6134162;29;20027;-90
2022/04/14 12:07:16;;;;;;;9.80;5.45;;;;;;;;;;6148544;29;20019;-91
2022/04/14 12:10:16;;;;;;;;;;;;;;;;;;6134819;29;20032;-91
2022/04/14 12:13:17;;;;;;;7.82;4.40;;;;;;;;;;6133510;29;19961;-91
2022/04/14 12:16:17;;;;;;;11.73;6.05;;;;;;;;;;6135782;29;20042;-91
2022/04/14 12:19:21;;;;;;;11.50;5.30;;;;;;;;;;6134565;29;20545;-91
2022/04/14 12:22:23;;;;;;;7.32;4.82;;;;;;;;;;6148612;29;20027;-91
2022/04/14 12:25:23;;;;;;;10.15;5.45;;;;;;;;;;6133732;29;20023;-91
2022/04/14 12:28:24;;;;;;;;;;;;;;;;;;6134732;29;20019;-91
2022/04/14 12:31:28;;;;;;;8.27;5.22;;;;;;;;;;6150003;28;20263;-91
2022/04/14 12:34:31;;;;;;;9.75;5.43;;;;;;;;;;6143621;28;20483;-91
2022/04/14 12:37:36;;;;;;;9.23;5.28;;;;;;;;;;6126127;29;20062;-91
2022/04/14 12:40:36;;;;;;;8.82;4.78;;;;;;;;;;6126826;29;20166;-91
2022/04/14 12:43:39;;;;;;;;;;;;;;;;;;6125618;29;20026;-91
2022/04/14 12:46:41;;;;;;;6.25;4.43;;;;;;;;;;6127426;29;19922;-91
2022/04/14 12:49:41;;;;;;;11.65;5.28;;;;;;;;;;6126869;29;20024;-91
2022/04/14 12:52:42;;;;;;;;;;;;;;;;;;6125972;29;20479;-91
2022/04/14 12:55:42;;;;;;;12.85;5.30;;;;;;;;;;6122946;29;19926;-91
2022/04/14 12:58:42;;;;;;;;;;;;;;;;;;6123316;29;20019;-91
2022/04/14 13:01:53;;;;;;;10.07;5.50;;;;;;;;;;6122507;29;20345;-91
2022/04/14 13:05:03;;;;;;;11.23;5.63;;;;;;;;;;6122050;29;20525;-91
2022/04/14 13:08:03;;;;;;;7.10;4.50;;;;;;;;;;6123974;29;20426;-91
2022/04/14 13:11:04;;;;;;;;;;;;;;;;;;6123713;29;20012;-91
2022/04/14 13:14:17;;;;;;;12.90;5.20;;;;;;;;;;6123278;29;19934;-91
2022/04/14 13:17:17;;;;;;;10.13;5.18;;;;;;;;;;6123845;29;20338;-90
2022/04/14 13:20:17;;;;;;;;;;;;;;;;;;6124594;29;20024;-91
2022/04/14 13:23:21;;;;;;;10.90;4.80;;;;;;;;;;6138250;29;19923;-90
2022/04/14 13:26:21;;;;;;;9.32;5.05;;;;;;;;;;6125421;29;20024;-91
2022/04/14 13:29:21;;;;;;;;;;;;;;;;;;6126894;29;20114;-91
2022/04/14 13:32:22;;;;;;;11.57;4.50;;;;;;;;;;6125094;29;20017;-91
2022/04/14 13:35:22;;;;;;;;;;;;;;;;;;6137259;28;20497;-91
2022/04/14 13:38:23;;;;;;;8.25;4.95;;;;;;;;;;6139253;29;20003;-91
2022/04/14 13:41:23;;;;;;;;;;;;;;;;;;6151197;29;20019;-91
2022/04/14 13:44:23;;;;;;;8.95;4.13;;;;;;;;;;6126144;28;19922;-91
2022/04/14 13:47:23;;;;;;;;;;;;;;;;;;6139458;28;20091;-91
2022/04/14 13:50:24;;;;;;;6.60;3.42;;;;;;;;;;6136734;28;19914;-91
2022/04/14 13:53:24;;;;;;;;;;;;;;;;;;6131171;28;20023;-91
2022/04/14 13:56:24;;;;;;;5.65;3.38;;;;;;;;;;6131439;29;19910;-91
2022/04/14 13:59:24;;;;;;;;;;;;;;;;;;6135287;28;20034;-91
2022/04/14 14:02:25;;;;;;;7.97;3.85;;;;;;;;;;6132954;29;19915;-91
2022/04/14 14:05:25;;;;;;;4.63;2.60;;;;;;;;;;6134637;28;20027;-91
2022/04/14 14:08:26;;;;;;;6.35;3.08;;;;;;;;;;6138339;28;20647;-91
2022/04/14 14:11:26;;;;;;;;;;;;;;;;;;6130999;28;20027;-91
2022/04/14 14:14:26;;;;;;;6.30;3.50;;;;;;;;;;6140701;28;19907;-91
2022/04/14 14:17:27;;;;;;;8.80;3.97;;;;;;;;;;6130542;29;20023;-91
2022/04/14 14:20:27;;;;;;;9.17;2.80;;;;;;;;;;6148470;29;20023;-91
2022/04/14 14:23:27;;;;;;;4.25;2.47;;;;;;;;;;6126454;29;20070;-91
2022/04/14 14:26:28;;;;;;;6.53;3.77;;;;;;;;;;6131648;29;20028;-90
2022/04/14 14:29:28;;;;;;;;;;;;;;;;;;6131886;28;20073;-91
2022/04/14 14:32:28;;;;;;;6.25;3.17;;;;;;;;;;6128960;28;19957;-91
2022/04/14 14:35:29;;;;;;;5.82;3.03;;;;;;;;;;6145784;28;20035;-92
2022/04/14 14:38:30;;;;;;;7.50;3.30;;;;;;;;;;6129347;28;20066;-91
2022/04/14 14:41:30;;;;;;;4.97;2.50;;;;;;;;;;6131343;28;20070;-91
2022/04/14 14:44:31;;;;;;;6.68;3.83;;;;;;;;;;6130961;29;20053;-91
2022/04/14 14:47:31;;;;;;;7.47;3.67;;;;;;;;;;6129515;29;20027;-91
2022/04/14 14:50:31;;;;;;;6.87;3.90;;;;;;;;;;6131158;29;20019;-90
2022/04/14 14:53:31;;;;;;;5.60;3.17;;;;;;;;;;6131778;29;20027;-91
2022/04/14 14:56:31;;;;;;;8.13;4.33;;;;;;;;;;6132262;29;20030;-91
2022/04/14 14:59:32;;;;;;;5.77;3.13;;;;;;;;;;6131735;29;20027;-91
2022/04/14 15:02:32;;;;;;;4.60;2.97;;;;;;;;;;6148508;29;20019;-91
2022/04/14 15:05:32;;;;;;;10.57;4.13;;;;;;;;;;6131123;28;20027;-91
2022/04/14 15:08:33;;;;;;;12.67;4.17;;;;;;;;;;6141460;28;20031;-91
2022/04/14 15:11:33;;;;;;;6.77;4.00;;;;;;;;;;6136255;28;20518;-92
2022/04/14 15:14:33;;;;;;;8.67;3.87;;;;;;;;;;6134416;28;20039;-91
2022/04/14 15:17:33;;;;;;;9.67;4.50;;;;;;;;;;6129705;29;20023;-91
2022/04/14 15:20:35;;;;;;;9.53;4.10;;;;;;;;;;6146656;29;20098;-90
2022/04/14 15:23:35;;;;;;;7.95;3.80;;;;;;;;;;6134291;29;20030;-91
2022/04/14 15:26:35;;;;;;;7.80;4.60;;;;;;;;;;6132201;29;20019;-91
2022/04/14 15:29:36;;;;;;;6.80;4.30;;;;;;;;;;6129438;29;20024;-90
2022/04/14 15:32:36;;;;;;;5.33;3.33;;;;;;;;;;6132401;28;20037;-91
2022/04/14 15:35:36;;;;;;;7.37;3.97;;;;;;;;;;6137911;28;20090;-91
2022/04/14 15:38:38;;;;;;;6.90;5.17;;;;;;;;;;6135618;28;20030;-91
2022/04/14 15:41:39;;;;;;;7.95;3.67;;;;;;;;;;6106509;29;20598;-92
2022/04/14 15:44:39;;;;;;;7.87;3.87;;;;;;;;;;6129964;28;20072;-91
2022/04/14 15:47:39;;;;;;;7.97;3.90;;;;;;;;;;6153934;28;20578;-91
2022/04/14 15:50:42;;;;;;;8.67;3.80;;;;;;;;;;6154831;28;20078;-92
2022/04/14 15:53:43;;;;;;;6.30;4.00;;;;;;;;;;6154551;28;20027;-92
2022/04/14 15:56:43;;;;;;;5.97;3.83;;;;;;;;;;6132259;28;20030;-92
2022/04/14 15:59:45;;;;;;;6.50;4.40;;;;;;;;;;6147470;29;20023;-92
2022/04/14 16:02:45;;;;;;;;;;;;;;;;;;6130857;29;20035;-92
2022/04/14 16:05:46;;;;;;;7.30;4.30;;;;;;;;;;6148130;29;19917;-92
2022/04/14 16:08:46;;;;;;;8.50;4.20;;;;;;;;;;6129740;29;20721;-91
2022/04/14 16:12:06;;;;;;;6.37;3.80;;;;;;;;;;6135221;28;20110;-91
2022/04/14 16:15:07;;;;;;;8.73;3.50;;;;;;;;;;6132053;28;20098;-91
2022/04/14 16:18:07;;;;;;;6.87;3.33;;;;;;;;;;6131892;29;20026;-91
2022/04/14 16:21:07;;;;;;;7.40;4.13;;;;;;;;;;6129774;29;20110;-92
2022/04/14 16:24:08;;;;;;;7.67;3.87;;;;;;;;;;6139874;28;20050;-91
2022/04/14 16:27:08;;;;;;;11.23;4.80;;;;;;;;;;6137653;28;20057;-91
2022/04/14 16:30:09;;;;;;;7.03;4.27;;;;;;;;;;6147468;28;20019;-91
2022/04/14 16:33:11;;;;;;;10.90;4.20;;;;;;;;;;6149646;28;20440;-92
2022/04/14 16:36:11;;;;;;;9.20;4.88;;;;;;;;;;6129048;29;20051;-92
2022/04/14 16:39:11;;;;;;;9.37;5.23;;;;;;;;;;6148671;28;20018;-91
2022/04/14 16:42:12;;;;;;;9.13;4.33;;;;;;;;;;6132724;29;20020;-91
2022/04/14 16:45:12;;;;;;;9.17;4.53;;;;;;;;;;6131663;29;20573;-92
2022/04/14 16:48:12;;;;;;;11.67;4.73;;;;;;;;;;6132538;29;20038;-91
2022/04/14 16:51:14;;;;;;;13.63;4.60;;;;;;;;;;6135062;29;20054;-91
2022/04/14 16:54:14;;;;;;;8.35;4.38;;;;;;;;;;6132401;29;20118;-92
2022/04/14 16:57:15;;;;;;;8.33;3.67;;;;;;;;;;6133252;29;20483;-91
2022/04/14 17:00:18;;;;;;;9.30;5.15;;;;;;;;;;6132681;29;20105;-92
2022/04/14 17:03:20;;;;;;;8.50;3.90;;;;;;;;;;6132375;28;20475;-92
2022/04/14 17:06:20;;;;;;;9.25;5.28;;;;;;;;;;6134464;29;20027;-92
2022/04/14 17:09:20;;;;;;;15.70;7.13;;;;;;;;;;6130300;29;20086;-91
2022/04/14 17:12:22;;;;;;;22.07;16.30;;;;;;;;;;6133149;29;20019;-91
2022/04/14 17:15:23;;;;;;;;;;;;;;;;;;6136347;29;20796;-91
2022/04/14 17:18:25;;;;;;;23.60;14.37;;;;;;;;;;6128792;29;20366;-92
2022/04/14 17:24:19;;;;;;;21.77;13.48;;;;;;;;;;6143489;29;20306;-92
2022/04/14 17:24:47;;;;;;;37.75;20.50;;;;;;;;;;6134310;29;20094;-92
2022/04/14 17:27:47;;;;;;;84.10;50.67;;;;;;;;;;6132498;29;20027;-91
2022/04/14 17:30:48;;;;;;;67.37;40.23;;;;;;;;;;6127762;29;20118;-91
2022/04/14 17:33:48;;;;;;;93.43;55.97;;;;;;;;;;6125461;29;20514;-91
2022/04/14 17:36:50;;;;;;;114.03;62.07;;;;;;;;;;6132088;29;20490;-91
2022/04/14 17:39:50;;;;;;;102.53;58.95;;;;;;;;;;6130064;29;20511;-92
2022/04/14 17:42:50;;;;;;;178.83;103.40;;;;;;;;;;6133183;29;20034;-92
2022/04/14 17:45:51;;;;;;;351.43;196.33;;;;;;;;;;6150322;28;20078;-92
2022/04/14 17:48:51;;;;;;;225.77;133.10;;;;;;;;;;6129078;28;20079;-91
2022/04/14 17:51:52;;;;;;;228.07;141.70;;;;;;;;;;6131068;29;20026;-91
2022/04/14 17:54:52;;;;;;;96.10;64.03;;;;;;;;;;6127925;29;20765;-92
2022/04/14 17:57:52;;;;;;;69.10;44.97;;;;;;;;;;6146839;29;20033;-92
2022/04/14 18:00:53;;;;;;;69.20;37.77;;;;;;;;;;6134171;28;20094;-92
2022/04/14 18:03:56;;;;;;;85.53;45.10;;;;;;;;;;6132431;28;20074;-92